sensor_id;sensor_type;location;lat;lon;timestamp;P1;durP1;ratioP1;P2;durP2;ratioP2
13432;SDS011;6789;47.678;9.158;2023-08-24T00:01:37;4.80;;;4.35;;
13432;SDS011;6789;47.678;9.158;2023-08-24T00:06:29;6.30;;;4.88;;
13432;SDS011;6789;47.678;9.158;2023-08-24T00:11:21;6.03;;;4.45;;
13432;SDS011;6789;47.678;9.158;2023-08-24T00:16:12;6.55;;;5.13;;
13432;SDS011;6789;47.678;9.158;2023-08-24T00:21:04;5.50;;;4.72;;
13432;SDS011;6789;47.678;9.158;2023-08-24T00:25:56;5.72;;;5.05;;
13432;SDS011;6789;47.678;9.158;2023-08-24T00:30:48;6.55;;;4.90;;
13432;SDS011;6789;47.678;9.158;2023-08-24T00:35:40;6.78;;;4.40;;
13432;SDS011;6789;47.678;9.158;2023-08-24T00:40:31;6.47;;;5.10;;
13432;SDS011;6789;47.678;9.158;2023-08-24T00:45:23;6.60;;;5.22;;
13432;SDS011;6789;47.678;9.158;2023-08-24T00:50:16;6.38;;;5.10;;
13432;SDS011;6789;47.678;9.158;2023-08-24T00:55:09;8.02;;;5.15;;
13432;SDS011;6789;47.678;9.158;2023-08-24T01:00:02;6.88;;;5.05;;
13432;SDS011;6789;47.678;9.158;2023-08-24T01:04:57;7.57;;;6.03;;
13432;SDS011;6789;47.678;9.158;2023-08-24T01:09:50;6.75;;;5.43;;
13432;SDS011;6789;47.678;9.158;2023-08-24T01:20:26;6.53;;;5.50;;
13432;SDS011;6789;47.678;9.158;2023-08-24T01:30:33;7.18;;;5.60;;
13432;SDS011;6789;47.678;9.158;2023-08-24T01:35:28;9.50;;;5.55;;
13432;SDS011;6789;47.678;9.158;2023-08-24T01:40:26;6.75;;;5.30;;
13432;SDS011;6789;47.678;9.158;2023-08-24T01:45:36;9.98;;;5.90;;
13432;SDS011;6789;47.678;9.158;2023-08-24T01:50:32;6.78;;;5.50;;
13432;SDS011;6789;47.678;9.158;2023-08-24T01:55:25;9.55;;;5.85;;
13432;SDS011;6789;47.678;9.158;2023-08-24T02:00:17;6.15;;;4.78;;
13432;SDS011;6789;47.678;9.158;2023-08-24T02:05:09;9.70;;;5.90;;
13432;SDS011;6789;47.678;9.158;2023-08-24T02:10:00;9.75;;;5.90;;
13432;SDS011;6789;47.678;9.158;2023-08-24T02:14:52;5.18;;;4.68;;
13432;SDS011;6789;47.678;9.158;2023-08-24T02:19:44;9.52;;;6.03;;
13432;SDS011;6789;47.678;9.158;2023-08-24T02:24:36;8.68;;;5.88;;
13432;SDS011;6789;47.678;9.158;2023-08-24T02:29:27;7.93;;;6.65;;
13432;SDS011;6789;47.678;9.158;2023-08-24T02:34:19;7.00;;;5.45;;
13432;SDS011;6789;47.678;9.158;2023-08-24T02:39:11;6.90;;;4.97;;
13432;SDS011;6789;47.678;9.158;2023-08-24T02:44:03;6.30;;;5.07;;
13432;SDS011;6789;47.678;9.158;2023-08-24T02:48:55;8.10;;;5.03;;
13432;SDS011;6789;47.678;9.158;2023-08-24T02:53:47;6.60;;;5.70;;
13432;SDS011;6789;47.678;9.158;2023-08-24T02:58:38;6.80;;;5.82;;
13432;SDS011;6789;47.678;9.158;2023-08-24T03:03:30;7.40;;;5.60;;
13432;SDS011;6789;47.678;9.158;2023-08-24T03:08:22;7.97;;;5.63;;
13432;SDS011;6789;47.678;9.158;2023-08-24T03:13:14;8.10;;;5.80;;
13432;SDS011;6789;47.678;9.158;2023-08-24T03:18:06;7.70;;;6.45;;
13432;SDS011;6789;47.678;9.158;2023-08-24T03:22:58;6.82;;;5.40;;
13432;SDS011;6789;47.678;9.158;2023-08-24T03:27:49;7.32;;;5.78;;
13432;SDS011;6789;47.678;9.158;2023-08-24T03:32:42;6.97;;;5.75;;
13432;SDS011;6789;47.678;9.158;2023-08-24T03:37:33;8.63;;;6.07;;
13432;SDS011;6789;47.678;9.158;2023-08-24T03:42:28;6.47;;;5.80;;
13432;SDS011;6789;47.678;9.158;2023-08-24T03:47:20;9.65;;;6.10;;
13432;SDS011;6789;47.678;9.158;2023-08-24T03:52:12;7.47;;;5.57;;
13432;SDS011;6789;47.678;9.158;2023-08-24T03:57:05;7.10;;;5.88;;
13432;SDS011;6789;47.678;9.158;2023-08-24T04:01:57;6.72;;;5.68;;
13432;SDS011;6789;47.678;9.158;2023-08-24T04:06:52;6.10;;;5.50;;
13432;SDS011;6789;47.678;9.158;2023-08-24T04:11:44;10.63;;;6.15;;
13432;SDS011;6789;47.678;9.158;2023-08-24T04:16:36;6.35;;;5.72;;
13432;SDS011;6789;47.678;9.158;2023-08-24T04:21:28;6.93;;;5.65;;
13432;SDS011;6789;47.678;9.158;2023-08-24T04:26:19;6.20;;;5.60;;
13432;SDS011;6789;47.678;9.158;2023-08-24T04:31:11;9.02;;;5.82;;
13432;SDS011;6789;47.678;9.158;2023-08-24T04:36:03;6.70;;;5.82;;
13432;SDS011;6789;47.678;9.158;2023-08-24T04:40:55;7.88;;;6.20;;
13432;SDS011;6789;47.678;9.158;2023-08-24T04:45:48;7.18;;;6.00;;
13432;SDS011;6789;47.678;9.158;2023-08-24T04:50:46;6.53;;;5.60;;
13432;SDS011;6789;47.678;9.158;2023-08-24T04:55:38;5.88;;;5.22;;
13432;SDS011;6789;47.678;9.158;2023-08-24T05:00:30;6.35;;;5.57;;
13432;SDS011;6789;47.678;9.158;2023-08-24T05:05:24;8.43;;;5.90;;
13432;SDS011;6789;47.678;9.158;2023-08-24T05:10:16;8.88;;;6.00;;
13432;SDS011;6789;47.678;9.158;2023-08-24T05:15:08;8.50;;;5.50;;
13432;SDS011;6789;47.678;9.158;2023-08-24T05:20:00;10.70;;;5.70;;
13432;SDS011;6789;47.678;9.158;2023-08-24T05:24:52;6.78;;;5.20;;
13432;SDS011;6789;47.678;9.158;2023-08-24T05:29:44;6.43;;;5.13;;
13432;SDS011;6789;47.678;9.158;2023-08-24T05:34:35;8.20;;;4.90;;
13432;SDS011;6789;47.678;9.158;2023-08-24T05:39:27;7.25;;;5.20;;
13432;SDS011;6789;47.678;9.158;2023-08-24T05:44:19;9.88;;;4.88;;
13432;SDS011;6789;47.678;9.158;2023-08-24T05:49:12;8.02;;;4.68;;
13432;SDS011;6789;47.678;9.158;2023-08-24T05:54:05;7.18;;;4.38;;
13432;SDS011;6789;47.678;9.158;2023-08-24T05:58:57;5.13;;;4.63;;
13432;SDS011;6789;47.678;9.158;2023-08-24T06:03:49;5.05;;;4.55;;
13432;SDS011;6789;47.678;9.158;2023-08-24T06:08:42;4.97;;;4.43;;
13432;SDS011;6789;47.678;9.158;2023-08-24T06:13:34;6.15;;;4.15;;
13432;SDS011;6789;47.678;9.158;2023-08-24T06:18:26;8.60;;;4.85;;
13432;SDS011;6789;47.678;9.158;2023-08-24T06:23:18;5.82;;;4.57;;
13432;SDS011;6789;47.678;9.158;2023-08-24T06:28:11;6.00;;;4.80;;
13432;SDS011;6789;47.678;9.158;2023-08-24T06:33:04;5.00;;;4.47;;
13432;SDS011;6789;47.678;9.158;2023-08-24T06:37:57;6.35;;;4.95;;
13432;SDS011;6789;47.678;9.158;2023-08-24T06:42:49;5.97;;;4.90;;
13432;SDS011;6789;47.678;9.158;2023-08-24T06:47:41;6.78;;;4.28;;
13432;SDS011;6789;47.678;9.158;2023-08-24T06:52:33;6.60;;;4.65;;
13432;SDS011;6789;47.678;9.158;2023-08-24T06:57:25;5.25;;;4.60;;
13432;SDS011;6789;47.678;9.158;2023-08-24T07:02:16;6.97;;;4.72;;
13432;SDS011;6789;47.678;9.158;2023-08-24T07:07:09;4.65;;;4.25;;
13432;SDS011;6789;47.678;9.158;2023-08-24T07:12:02;6.00;;;4.63;;
13432;SDS011;6789;47.678;9.158;2023-08-24T07:16:57;8.05;;;5.10;;
13432;SDS011;6789;47.678;9.158;2023-08-24T07:21:49;4.50;;;4.10;;
13432;SDS011;6789;47.678;9.158;2023-08-24T07:26:41;5.00;;;4.50;;
13432;SDS011;6789;47.678;9.158;2023-08-24T07:31:33;5.72;;;4.57;;
13432;SDS011;6789;47.678;9.158;2023-08-24T07:36:28;5.18;;;4.68;;
13432;SDS011;6789;47.678;9.158;2023-08-24T07:41:23;5.15;;;4.45;;
13432;SDS011;6789;47.678;9.158;2023-08-24T07:46:15;6.28;;;4.05;;
13432;SDS011;6789;47.678;9.158;2023-08-24T07:51:07;4.75;;;4.25;;
13432;SDS011;6789;47.678;9.158;2023-08-24T07:55:59;7.40;;;4.68;;
13432;SDS011;6789;47.678;9.158;2023-08-24T08:00:52;5.82;;;4.38;;
13432;SDS011;6789;47.678;9.158;2023-08-24T08:05:44;7.38;;;4.38;;
13432;SDS011;6789;47.678;9.158;2023-08-24T08:10:37;8.32;;;5.00;;
13432;SDS011;6789;47.678;9.158;2023-08-24T08:15:29;7.13;;;5.10;;
13432;SDS011;6789;47.678;9.158;2023-08-24T08:20:21;7.13;;;4.78;;
13432;SDS011;6789;47.678;9.158;2023-08-24T08:25:13;6.75;;;5.10;;
13432;SDS011;6789;47.678;9.158;2023-08-24T08:30:05;6.32;;;4.85;;
13432;SDS011;6789;47.678;9.158;2023-08-24T08:34:57;5.20;;;4.70;;
13432;SDS011;6789;47.678;9.158;2023-08-24T08:39:51;8.43;;;5.00;;
13432;SDS011;6789;47.678;9.158;2023-08-24T08:44:45;7.32;;;5.55;;
13432;SDS011;6789;47.678;9.158;2023-08-24T08:49:43;7.60;;;5.13;;
13432;SDS011;6789;47.678;9.158;2023-08-24T08:54:39;5.82;;;5.22;;
13432;SDS011;6789;47.678;9.158;2023-08-24T08:59:31;7.15;;;5.10;;
13432;SDS011;6789;47.678;9.158;2023-08-24T09:04:24;6.68;;;5.15;;
13432;SDS011;6789;47.678;9.158;2023-08-24T09:09:18;7.25;;;5.53;;
13432;SDS011;6789;47.678;9.158;2023-08-24T09:14:10;4.80;;;4.40;;
13432;SDS011;6789;47.678;9.158;2023-08-24T09:19:02;5.72;;;4.80;;
13432;SDS011;6789;47.678;9.158;2023-08-24T09:23:57;6.45;;;4.70;;
13432;SDS011;6789;47.678;9.158;2023-08-24T09:28:49;6.68;;;4.93;;
13432;SDS011;6789;47.678;9.158;2023-08-24T09:33:42;7.18;;;5.60;;
13432;SDS011;6789;47.678;9.158;2023-08-24T09:38:36;7.20;;;5.22;;
13432;SDS011;6789;47.678;9.158;2023-08-24T09:43:29;5.63;;;5.05;;
13432;SDS011;6789;47.678;9.158;2023-08-24T09:48:22;8.57;;;5.05;;
13432;SDS011;6789;47.678;9.158;2023-08-24T09:53:20;8.38;;;5.07;;
13432;SDS011;6789;47.678;9.158;2023-08-24T09:58:13;7.40;;;5.32;;
13432;SDS011;6789;47.678;9.158;2023-08-24T10:03:06;5.63;;;4.70;;
13432;SDS011;6789;47.678;9.158;2023-08-24T10:07:59;5.70;;;4.85;;
13432;SDS011;6789;47.678;9.158;2023-08-24T10:12:53;9.23;;;6.30;;
13432;SDS011;6789;47.678;9.158;2023-08-24T10:18:04;5.25;;;4.75;;
13432;SDS011;6789;47.678;9.158;2023-08-24T10:22:57;7.72;;;5.47;;
13432;SDS011;6789;47.678;9.158;2023-08-24T10:27:55;6.97;;;5.03;;
13432;SDS011;6789;47.678;9.158;2023-08-24T10:32:49;7.50;;;5.32;;
13432;SDS011;6789;47.678;9.158;2023-08-24T10:37:45;8.88;;;5.32;;
13432;SDS011;6789;47.678;9.158;2023-08-24T10:42:43;8.05;;;5.90;;
13432;SDS011;6789;47.678;9.158;2023-08-24T10:47:45;7.10;;;4.82;;
13432;SDS011;6789;47.678;9.158;2023-08-24T10:52:38;9.02;;;5.45;;
13432;SDS011;6789;47.678;9.158;2023-08-24T10:57:37;7.55;;;5.00;;
13432;SDS011;6789;47.678;9.158;2023-08-24T11:02:30;11.35;;;5.82;;
13432;SDS011;6789;47.678;9.158;2023-08-24T11:07:47;9.65;;;5.60;;
13432;SDS011;6789;47.678;9.158;2023-08-24T11:23:06;8.00;;;5.28;;
13432;SDS011;6789;47.678;9.158;2023-08-24T11:27:59;9.13;;;5.22;;
13432;SDS011;6789;47.678;9.158;2023-08-24T11:32:52;6.78;;;4.97;;
13432;SDS011;6789;47.678;9.158;2023-08-24T11:37:51;8.35;;;6.25;;
13432;SDS011;6789;47.678;9.158;2023-08-24T11:42:43;9.05;;;5.30;;
13432;SDS011;6789;47.678;9.158;2023-08-24T11:47:35;10.43;;;5.03;;
13432;SDS011;6789;47.678;9.158;2023-08-24T11:52:27;11.88;;;6.30;;
13432;SDS011;6789;47.678;9.158;2023-08-24T11:57:20;9.20;;;5.38;;
13432;SDS011;6789;47.678;9.158;2023-08-24T12:02:12;11.10;;;5.80;;
13432;SDS011;6789;47.678;9.158;2023-08-24T12:07:11;8.10;;;5.55;;
13432;SDS011;6789;47.678;9.158;2023-08-24T12:12:04;6.90;;;5.28;;
13432;SDS011;6789;47.678;9.158;2023-08-24T12:16:57;10.65;;;5.10;;
13432;SDS011;6789;47.678;9.158;2023-08-24T12:21:49;8.27;;;5.63;;
13432;SDS011;6789;47.678;9.158;2023-08-24T12:26:41;7.78;;;5.20;;
13432;SDS011;6789;47.678;9.158;2023-08-24T12:31:33;10.45;;;6.18;;
13432;SDS011;6789;47.678;9.158;2023-08-24T12:36:26;7.90;;;5.78;;
13432;SDS011;6789;47.678;9.158;2023-08-24T12:41:18;7.47;;;5.65;;
13432;SDS011;6789;47.678;9.158;2023-08-24T12:46:10;13.15;;;6.03;;
13432;SDS011;6789;47.678;9.158;2023-08-24T12:51:01;11.05;;;5.72;;
13432;SDS011;6789;47.678;9.158;2023-08-24T12:55:53;7.15;;;5.50;;
13432;SDS011;6789;47.678;9.158;2023-08-24T13:00:45;11.00;;;6.15;;
13432;SDS011;6789;47.678;9.158;2023-08-24T13:05:38;11.88;;;5.78;;
13432;SDS011;6789;47.678;9.158;2023-08-24T13:10:30;8.38;;;6.10;;
13432;SDS011;6789;47.678;9.158;2023-08-24T13:15:22;12.05;;;6.40;;
13432;SDS011;6789;47.678;9.158;2023-08-24T13:20:14;10.70;;;6.22;;
13432;SDS011;6789;47.678;9.158;2023-08-24T13:25:07;8.15;;;5.78;;
13432;SDS011;6789;47.678;9.158;2023-08-24T13:29:59;10.88;;;6.00;;
13432;SDS011;6789;47.678;9.158;2023-08-24T13:34:52;8.52;;;5.43;;
13432;SDS011;6789;47.678;9.158;2023-08-24T13:39:44;9.05;;;5.53;;
13432;SDS011;6789;47.678;9.158;2023-08-24T13:44:36;11.05;;;5.60;;
13432;SDS011;6789;47.678;9.158;2023-08-24T13:49:27;7.38;;;5.38;;
13432;SDS011;6789;47.678;9.158;2023-08-24T13:54:29;12.90;;;5.72;;
13432;SDS011;6789;47.678;9.158;2023-08-24T13:59:21;11.57;;;6.07;;
13432;SDS011;6789;47.678;9.158;2023-08-24T14:04:13;7.43;;;4.88;;
13432;SDS011;6789;47.678;9.158;2023-08-24T14:09:06;8.38;;;5.57;;
13432;SDS011;6789;47.678;9.158;2023-08-24T14:13:58;10.82;;;5.82;;
13432;SDS011;6789;47.678;9.158;2023-08-24T14:18:51;10.40;;;5.80;;
13432;SDS011;6789;47.678;9.158;2023-08-24T14:23:44;14.45;;;6.28;;
13432;SDS011;6789;47.678;9.158;2023-08-24T14:33:42;8.48;;;5.40;;
13432;SDS011;6789;47.678;9.158;2023-08-24T14:38:34;10.93;;;5.85;;
13432;SDS011;6789;47.678;9.158;2023-08-24T14:43:26;11.90;;;6.03;;
13432;SDS011;6789;47.678;9.158;2023-08-24T14:48:19;11.30;;;6.10;;
13432;SDS011;6789;47.678;9.158;2023-08-24T14:53:11;13.30;;;5.97;;
13432;SDS011;6789;47.678;9.158;2023-08-24T14:58:03;11.18;;;5.47;;
13432;SDS011;6789;47.678;9.158;2023-08-24T15:02:55;7.07;;;5.65;;
13432;SDS011;6789;47.678;9.158;2023-08-24T15:07:48;10.15;;;5.45;;
13432;SDS011;6789;47.678;9.158;2023-08-24T15:12:41;11.23;;;5.25;;
13432;SDS011;6789;47.678;9.158;2023-08-24T15:17:37;14.55;;;5.75;;
13432;SDS011;6789;47.678;9.158;2023-08-24T15:22:29;10.93;;;5.70;;
13432;SDS011;6789;47.678;9.158;2023-08-24T15:27:21;9.63;;;5.55;;
13432;SDS011;6789;47.678;9.158;2023-08-24T15:32:13;9.00;;;5.63;;
13432;SDS011;6789;47.678;9.158;2023-08-24T15:37:05;8.85;;;5.70;;
13432;SDS011;6789;47.678;9.158;2023-08-24T15:41:57;12.80;;;6.28;;
13432;SDS011;6789;47.678;9.158;2023-08-24T15:46:49;8.68;;;5.78;;
13432;SDS011;6789;47.678;9.158;2023-08-24T15:51:41;8.68;;;6.28;;
13432;SDS011;6789;47.678;9.158;2023-08-24T15:56:34;10.15;;;6.47;;
13432;SDS011;6789;47.678;9.158;2023-08-24T16:01:26;12.60;;;5.80;;
13432;SDS011;6789;47.678;9.158;2023-08-24T16:06:18;11.30;;;5.68;;
13432;SDS011;6789;47.678;9.158;2023-08-24T16:11:11;11.30;;;5.80;;
13432;SDS011;6789;47.678;9.158;2023-08-24T16:16:05;12.68;;;5.97;;
13432;SDS011;6789;47.678;9.158;2023-08-24T16:20:57;9.27;;;5.43;;
13432;SDS011;6789;47.678;9.158;2023-08-24T16:25:49;13.55;;;5.93;;
13432;SDS011;6789;47.678;9.158;2023-08-24T16:30:45;15.63;;;6.30;;
13432;SDS011;6789;47.678;9.158;2023-08-24T16:35:40;11.82;;;6.18;;
13432;SDS011;6789;47.678;9.158;2023-08-24T16:40:34;9.60;;;5.40;;
13432;SDS011;6789;47.678;9.158;2023-08-24T16:45:27;12.27;;;6.05;;
13432;SDS011;6789;47.678;9.158;2023-08-24T16:50:19;10.93;;;5.60;;
13432;SDS011;6789;47.678;9.158;2023-08-24T16:55:11;11.95;;;5.50;;
13432;SDS011;6789;47.678;9.158;2023-08-24T17:00:04;9.32;;;5.30;;
13432;SDS011;6789;47.678;9.158;2023-08-24T17:04:58;12.20;;;5.55;;
13432;SDS011;6789;47.678;9.158;2023-08-24T17:09:49;10.75;;;5.60;;
13432;SDS011;6789;47.678;9.158;2023-08-24T17:14:41;11.32;;;5.90;;
13432;SDS011;6789;47.678;9.158;2023-08-24T17:19:33;9.88;;;6.00;;
13432;SDS011;6789;47.678;9.158;2023-08-24T17:24:25;10.70;;;6.00;;
13432;SDS011;6789;47.678;9.158;2023-08-24T17:29:17;9.25;;;6.38;;
13432;SDS011;6789;47.678;9.158;2023-08-24T17:34:08;17.33;;;6.40;;
13432;SDS011;6789;47.678;9.158;2023-08-24T17:39:00;12.55;;;6.20;;
13432;SDS011;6789;47.678;9.158;2023-08-24T17:43:59;11.63;;;5.70;;
13432;SDS011;6789;47.678;9.158;2023-08-24T17:48:51;12.68;;;6.05;;
13432;SDS011;6789;47.678;9.158;2023-08-24T17:53:43;6.47;;;5.60;;
13432;SDS011;6789;47.678;9.158;2023-08-24T17:58:35;10.60;;;5.93;;
13432;SDS011;6789;47.678;9.158;2023-08-24T18:03:33;12.73;;;6.22;;
13432;SDS011;6789;47.678;9.158;2023-08-24T18:08:25;11.57;;;6.18;;
13432;SDS011;6789;47.678;9.158;2023-08-24T18:13:28;12.10;;;6.28;;
13432;SDS011;6789;47.678;9.158;2023-08-24T18:18:20;19.58;;;6.75;;
13432;SDS011;6789;47.678;9.158;2023-08-24T18:23:15;14.13;;;6.90;;
13432;SDS011;6789;47.678;9.158;2023-08-24T18:28:08;15.88;;;6.88;;
13432;SDS011;6789;47.678;9.158;2023-08-24T18:32:59;12.80;;;6.75;;
13432;SDS011;6789;47.678;9.158;2023-08-24T18:37:51;19.25;;;5.45;;
13432;SDS011;6789;47.678;9.158;2023-08-24T18:42:44;13.32;;;4.72;;
13432;SDS011;6789;47.678;9.158;2023-08-24T18:47:36;8.50;;;3.30;;
13432;SDS011;6789;47.678;9.158;2023-08-24T18:52:31;10.10;;;3.58;;
13432;SDS011;6789;47.678;9.158;2023-08-24T18:57:23;12.00;;;4.00;;
13432;SDS011;6789;47.678;9.158;2023-08-24T19:02:14;6.55;;;3.42;;
13432;SDS011;6789;47.678;9.158;2023-08-24T19:07:09;8.55;;;4.00;;
13432;SDS011;6789;47.678;9.158;2023-08-24T19:12:01;10.00;;;3.33;;
13432;SDS011;6789;47.678;9.158;2023-08-24T19:16:53;7.28;;;3.03;;
13432;SDS011;6789;47.678;9.158;2023-08-24T19:21:44;12.05;;;3.60;;
13432;SDS011;6789;47.678;9.158;2023-08-24T19:26:36;13.13;;;3.40;;
13432;SDS011;6789;47.678;9.158;2023-08-24T19:31:28;9.55;;;3.38;;
13432;SDS011;6789;47.678;9.158;2023-08-24T19:36:20;11.70;;;3.63;;
13432;SDS011;6789;47.678;9.158;2023-08-24T19:41:11;11.25;;;3.60;;
13432;SDS011;6789;47.678;9.158;2023-08-24T19:46:05;9.73;;;3.13;;
13432;SDS011;6789;47.678;9.158;2023-08-24T19:50:57;6.03;;;2.33;;
13432;SDS011;6789;47.678;9.158;2023-08-24T19:55:48;5.13;;;2.08;;
13432;SDS011;6789;47.678;9.158;2023-08-24T20:00:40;4.05;;;2.15;;
13432;SDS011;6789;47.678;9.158;2023-08-24T20:05:33;4.45;;;2.40;;
13432;SDS011;6789;47.678;9.158;2023-08-24T20:10:28;7.45;;;2.65;;
13432;SDS011;6789;47.678;9.158;2023-08-24T20:15:20;6.90;;;2.88;;
13432;SDS011;6789;47.678;9.158;2023-08-24T20:20:13;5.65;;;2.45;;
13432;SDS011;6789;47.678;9.158;2023-08-24T20:25:13;7.20;;;2.55;;
13432;SDS011;6789;47.678;9.158;2023-08-24T20:30:06;6.55;;;3.10;;
13432;SDS011;6789;47.678;9.158;2023-08-24T20:35:00;8.35;;;2.85;;
13432;SDS011;6789;47.678;9.158;2023-08-24T20:39:53;5.97;;;2.53;;
13432;SDS011;6789;47.678;9.158;2023-08-24T20:44:46;5.63;;;2.90;;
13432;SDS011;6789;47.678;9.158;2023-08-24T20:49:38;5.55;;;2.58;;
13432;SDS011;6789;47.678;9.158;2023-08-24T20:54:30;7.47;;;2.75;;
13432;SDS011;6789;47.678;9.158;2023-08-24T20:59:23;6.32;;;3.47;;
13432;SDS011;6789;47.678;9.158;2023-08-24T21:04:15;5.25;;;2.90;;
13432;SDS011;6789;47.678;9.158;2023-08-24T21:09:08;5.63;;;2.90;;
13432;SDS011;6789;47.678;9.158;2023-08-24T21:14:00;5.75;;;3.10;;
13432;SDS011;6789;47.678;9.158;2023-08-24T21:18:52;7.80;;;3.70;;
13432;SDS011;6789;47.678;9.158;2023-08-24T21:23:44;7.93;;;3.83;;
13432;SDS011;6789;47.678;9.158;2023-08-24T21:28:36;5.95;;;3.20;;
13432;SDS011;6789;47.678;9.158;2023-08-24T21:33:28;5.32;;;3.15;;
13432;SDS011;6789;47.678;9.158;2023-08-24T21:38:20;8.73;;;3.53;;
13432;SDS011;6789;47.678;9.158;2023-08-24T21:43:13;7.47;;;2.72;;
13432;SDS011;6789;47.678;9.158;2023-08-24T21:48:05;7.97;;;3.08;;
13432;SDS011;6789;47.678;9.158;2023-08-24T21:52:57;7.03;;;3.05;;
13432;SDS011;6789;47.678;9.158;2023-08-24T21:57:49;9.60;;;3.20;;
13432;SDS011;6789;47.678;9.158;2023-08-24T22:02:43;5.55;;;3.08;;
13432;SDS011;6789;47.678;9.158;2023-08-24T22:07:35;10.45;;;2.97;;
13432;SDS011;6789;47.678;9.158;2023-08-24T22:12:27;5.03;;;2.92;;
13432;SDS011;6789;47.678;9.158;2023-08-24T22:17:19;8.93;;;3.30;;
13432;SDS011;6789;47.678;9.158;2023-08-24T22:22:11;6.00;;;3.20;;
13432;SDS011;6789;47.678;9.158;2023-08-24T22:27:03;5.30;;;3.08;;
13432;SDS011;6789;47.678;9.158;2023-08-24T22:31:58;7.90;;;3.45;;
13432;SDS011;6789;47.678;9.158;2023-08-24T22:36:50;7.70;;;3.40;;
13432;SDS011;6789;47.678;9.158;2023-08-24T22:41:42;5.28;;;3.22;;
13432;SDS011;6789;47.678;9.158;2023-08-24T22:46:34;5.68;;;2.90;;
13432;SDS011;6789;47.678;9.158;2023-08-24T22:51:26;8.35;;;3.65;;
13432;SDS011;6789;47.678;9.158;2023-08-24T22:56:18;8.32;;;3.22;;
13432;SDS011;6789;47.678;9.158;2023-08-24T23:01:14;10.93;;;3.60;;
13432;SDS011;6789;47.678;9.158;2023-08-24T23:06:14;8.13;;;3.50;;
13432;SDS011;6789;47.678;9.158;2023-08-24T23:11:10;6.43;;;3.05;;
13432;SDS011;6789;47.678;9.158;2023-08-24T23:16:03;10.38;;;3.72;;
13432;SDS011;6789;47.678;9.158;2023-08-24T23:20:59;13.77;;;4.55;;
13432;SDS011;6789;47.678;9.158;2023-08-24T23:25:51;6.85;;;3.38;;
13432;SDS011;6789;47.678;9.158;2023-08-24T23:30:44;6.85;;;4.10;;
13432;SDS011;6789;47.678;9.158;2023-08-24T23:35:36;9.38;;;4.45;;
13432;SDS011;6789;47.678;9.158;2023-08-24T23:40:28;5.55;;;3.25;;
13432;SDS011;6789;47.678;9.158;2023-08-24T23:45:22;6.63;;;3.40;;
13432;SDS011;6789;47.678;9.158;2023-08-24T23:50:14;8.45;;;4.05;;
13432;SDS011;6789;47.678;9.158;2023-08-24T23:55:05;6.80;;;3.63;;
13432;SDS011;6789;47.678;9.158;2023-08-24T23:59:58;7.10;;;3.15;;
